sensor_id;sensor_type;location;lat;lon;timestamp;P1;durP1;ratioP1;P2;durP2;ratioP2
30593;SDS011;33199;47.590;8.300;2022-07-23T00:01:18;3.30;;;3.10;;
30593;SDS011;33199;47.590;8.300;2022-07-23T00:03:44;3.20;;;3.08;;
30593;SDS011;33199;47.590;8.300;2022-07-23T00:06:10;3.05;;;2.90;;
30593;SDS011;33199;47.590;8.300;2022-07-23T00:08:36;3.08;;;2.88;;
30593;SDS011;33199;47.590;8.300;2022-07-23T00:11:02;3.47;;;3.17;;
30593;SDS011;33199;47.590;8.300;2022-07-23T00:13:27;3.78;;;3.58;;
30593;SDS011;33199;47.590;8.300;2022-07-23T00:15:53;3.25;;;3.05;;
30593;SDS011;33199;47.590;8.300;2022-07-23T00:18:19;3.10;;;2.90;;
30593;SDS011;33199;47.590;8.300;2022-07-23T00:20:44;3.30;;;3.10;;
30593;SDS011;33199;47.590;8.300;2022-07-23T00:23:10;3.58;;;3.30;;
30593;SDS011;33199;47.590;8.300;2022-07-23T00:25:35;3.33;;;3.13;;
30593;SDS011;33199;47.590;8.300;2022-07-23T00:28:02;3.20;;;3.00;;
30593;SDS011;33199;47.590;8.300;2022-07-23T00:30:28;2.97;;;2.78;;
30593;SDS011;33199;47.590;8.300;2022-07-23T00:32:56;2.95;;;2.70;;
30593;SDS011;33199;47.590;8.300;2022-07-23T00:35:24;3.45;;;3.25;;
30593;SDS011;33199;47.590;8.300;2022-07-23T00:37:52;3.50;;;3.20;;
30593;SDS011;33199;47.590;8.300;2022-07-23T00:40:18;3.47;;;3.28;;
30593;SDS011;33199;47.590;8.300;2022-07-23T00:42:44;3.40;;;3.20;;
30593;SDS011;33199;47.590;8.300;2022-07-23T00:45:10;3.10;;;2.90;;
30593;SDS011;33199;47.590;8.300;2022-07-23T00:47:35;3.50;;;3.30;;
30593;SDS011;33199;47.590;8.300;2022-07-23T00:50:03;3.08;;;2.90;;
30593;SDS011;33199;47.590;8.300;2022-07-23T00:52:30;2.90;;;2.75;;
30593;SDS011;33199;47.590;8.300;2022-07-23T00:54:57;3.28;;;3.00;;
30593;SDS011;33199;47.590;8.300;2022-07-23T00:57:22;3.60;;;3.28;;
30593;SDS011;33199;47.590;8.300;2022-07-23T00:59:48;3.00;;;2.90;;
30593;SDS011;33199;47.590;8.300;2022-07-23T01:02:13;2.83;;;2.72;;
30593;SDS011;33199;47.590;8.300;2022-07-23T01:04:39;5.35;;;3.13;;
30593;SDS011;33199;47.590;8.300;2022-07-23T01:07:05;3.65;;;3.30;;
30593;SDS011;33199;47.590;8.300;2022-07-23T01:09:31;3.15;;;3.00;;
30593;SDS011;33199;47.590;8.300;2022-07-23T01:11:57;3.20;;;3.00;;
30593;SDS011;33199;47.590;8.300;2022-07-23T01:14:23;2.83;;;2.63;;
30593;SDS011;33199;47.590;8.300;2022-07-23T01:16:49;3.05;;;2.85;;
30593;SDS011;33199;47.590;8.300;2022-07-23T01:19:15;3.45;;;3.25;;
30593;SDS011;33199;47.590;8.300;2022-07-23T01:21:42;3.00;;;2.80;;
30593;SDS011;33199;47.590;8.300;2022-07-23T01:24:10;3.20;;;3.00;;
30593;SDS011;33199;47.590;8.300;2022-07-23T01:26:36;4.15;;;3.10;;
30593;SDS011;33199;47.590;8.300;2022-07-23T01:29:02;3.33;;;3.13;;
30593;SDS011;33199;47.590;8.300;2022-07-23T01:31:28;2.70;;;2.50;;
30593;SDS011;33199;47.590;8.300;2022-07-23T01:33:54;3.35;;;3.13;;
30593;SDS011;33199;47.590;8.300;2022-07-23T01:36:20;3.08;;;2.88;;
30593;SDS011;33199;47.590;8.300;2022-07-23T01:38:46;3.25;;;3.05;;
30593;SDS011;33199;47.590;8.300;2022-07-23T01:41:12;3.45;;;3.15;;
30593;SDS011;33199;47.590;8.300;2022-07-23T01:43:38;2.97;;;2.78;;
30593;SDS011;33199;47.590;8.300;2022-07-23T01:46:03;3.20;;;3.00;;
30593;SDS011;33199;47.590;8.300;2022-07-23T01:48:29;3.40;;;3.20;;
30593;SDS011;33199;47.590;8.300;2022-07-23T01:50:55;3.13;;;2.92;;
30593;SDS011;33199;47.590;8.300;2022-07-23T01:53:20;3.40;;;3.20;;
30593;SDS011;33199;47.590;8.300;2022-07-23T01:55:46;3.30;;;3.00;;
30593;SDS011;33199;47.590;8.300;2022-07-23T01:58:11;2.85;;;2.65;;
30593;SDS011;33199;47.590;8.300;2022-07-23T02:00:37;2.70;;;2.60;;
30593;SDS011;33199;47.590;8.300;2022-07-23T02:03:03;3.75;;;3.38;;
30593;SDS011;33199;47.590;8.300;2022-07-23T02:05:28;2.88;;;2.70;;
30593;SDS011;33199;47.590;8.300;2022-07-23T02:07:55;3.25;;;3.05;;
30593;SDS011;33199;47.590;8.300;2022-07-23T02:10:22;3.15;;;2.95;;
30593;SDS011;33199;47.590;8.300;2022-07-23T02:12:47;2.90;;;2.70;;
30593;SDS011;33199;47.590;8.300;2022-07-23T02:15:13;3.00;;;2.80;;
30593;SDS011;33199;47.590;8.300;2022-07-23T02:17:38;3.20;;;3.00;;
30593;SDS011;33199;47.590;8.300;2022-07-23T02:20:05;3.00;;;2.80;;
30593;SDS011;33199;47.590;8.300;2022-07-23T02:22:32;2.88;;;2.67;;
30593;SDS011;33199;47.590;8.300;2022-07-23T02:24:57;3.03;;;2.70;;
30593;SDS011;33199;47.590;8.300;2022-07-23T02:27:23;3.03;;;2.83;;
30593;SDS011;33199;47.590;8.300;2022-07-23T02:29:48;2.83;;;2.70;;
30593;SDS011;33199;47.590;8.300;2022-07-23T02:32:15;3.30;;;3.10;;
30593;SDS011;33199;47.590;8.300;2022-07-23T02:34:41;3.05;;;2.85;;
30593;SDS011;33199;47.590;8.300;2022-07-23T02:37:07;3.08;;;2.83;;
30593;SDS011;33199;47.590;8.300;2022-07-23T02:39:33;3.22;;;3.03;;
30593;SDS011;33199;47.590;8.300;2022-07-23T02:42:00;3.03;;;2.85;;
30593;SDS011;33199;47.590;8.300;2022-07-23T02:44:25;2.85;;;2.75;;
30593;SDS011;33199;47.590;8.300;2022-07-23T02:46:51;3.10;;;2.90;;
30593;SDS011;33199;47.590;8.300;2022-07-23T02:49:17;3.47;;;3.17;;
30593;SDS011;33199;47.590;8.300;2022-07-23T02:51:42;2.80;;;2.60;;
30593;SDS011;33199;47.590;8.300;2022-07-23T02:54:08;2.95;;;2.75;;
30593;SDS011;33199;47.590;8.300;2022-07-23T02:56:33;3.20;;;3.00;;
30593;SDS011;33199;47.590;8.300;2022-07-23T02:58:59;3.08;;;2.90;;
30593;SDS011;33199;47.590;8.300;2022-07-23T03:01:25;2.75;;;2.55;;
30593;SDS011;33199;47.590;8.300;2022-07-23T03:03:50;3.25;;;3.05;;
30593;SDS011;33199;47.590;8.300;2022-07-23T03:06:16;2.80;;;2.60;;
30593;SDS011;33199;47.590;8.300;2022-07-23T03:08:42;3.00;;;2.80;;
30593;SDS011;33199;47.590;8.300;2022-07-23T03:11:07;3.00;;;2.80;;
30593;SDS011;33199;47.590;8.300;2022-07-23T03:16:05;2.90;;;2.70;;
30593;SDS011;33199;47.590;8.300;2022-07-23T03:18:30;2.83;;;2.72;;
30593;SDS011;33199;47.590;8.300;2022-07-23T03:20:56;2.88;;;2.72;;
30593;SDS011;33199;47.590;8.300;2022-07-23T03:23:22;2.45;;;2.35;;
30593;SDS011;33199;47.590;8.300;2022-07-23T03:25:47;3.20;;;2.92;;
30593;SDS011;33199;47.590;8.300;2022-07-23T03:28:13;3.00;;;2.88;;
30593;SDS011;33199;47.590;8.300;2022-07-23T03:30:41;3.42;;;2.75;;
30593;SDS011;33199;47.590;8.300;2022-07-23T03:33:15;3.03;;;2.83;;
30593;SDS011;33199;47.590;8.300;2022-07-23T03:35:42;3.00;;;2.80;;
30593;SDS011;33199;47.590;8.300;2022-07-23T03:38:08;2.65;;;2.55;;
30593;SDS011;33199;47.590;8.300;2022-07-23T03:40:33;2.83;;;2.63;;
30593;SDS011;33199;47.590;8.300;2022-07-23T03:42:59;2.70;;;2.53;;
30593;SDS011;33199;47.590;8.300;2022-07-23T03:45:25;3.10;;;2.90;;
30593;SDS011;33199;47.590;8.300;2022-07-23T03:47:50;2.80;;;2.70;;
30593;SDS011;33199;47.590;8.300;2022-07-23T03:50:16;3.17;;;2.97;;
30593;SDS011;33199;47.590;8.300;2022-07-23T03:52:42;2.60;;;2.50;;
30593;SDS011;33199;47.590;8.300;2022-07-23T03:55:07;2.83;;;2.63;;
30593;SDS011;33199;47.590;8.300;2022-07-23T03:57:33;2.88;;;2.78;;
30593;SDS011;33199;47.590;8.300;2022-07-23T03:59:59;2.80;;;2.60;;
30593;SDS011;33199;47.590;8.300;2022-07-23T04:02:25;2.72;;;2.53;;
30593;SDS011;33199;47.590;8.300;2022-07-23T04:04:51;3.10;;;3.00;;
30593;SDS011;33199;47.590;8.300;2022-07-23T04:07:16;2.80;;;2.60;;
30593;SDS011;33199;47.590;8.300;2022-07-23T04:09:42;2.95;;;2.75;;
30593;SDS011;33199;47.590;8.300;2022-07-23T04:12:08;2.80;;;2.60;;
30593;SDS011;33199;47.590;8.300;2022-07-23T04:14:34;2.90;;;2.70;;
30593;SDS011;33199;47.590;8.300;2022-07-23T04:17:00;2.72;;;2.58;;
30593;SDS011;33199;47.590;8.300;2022-07-23T04:19:26;2.80;;;2.60;;
30593;SDS011;33199;47.590;8.300;2022-07-23T04:21:52;3.00;;;2.80;;
30593;SDS011;33199;47.590;8.300;2022-07-23T04:24:18;2.63;;;2.53;;
30593;SDS011;33199;47.590;8.300;2022-07-23T04:26:44;3.08;;;2.80;;
30593;SDS011;33199;47.590;8.300;2022-07-23T04:29:10;3.10;;;2.90;;
30593;SDS011;33199;47.590;8.300;2022-07-23T04:31:35;3.25;;;3.05;;
30593;SDS011;33199;47.590;8.300;2022-07-23T04:34:01;2.65;;;2.55;;
30593;SDS011;33199;47.590;8.300;2022-07-23T04:36:27;2.70;;;2.60;;
30593;SDS011;33199;47.590;8.300;2022-07-23T04:38:53;2.80;;;2.60;;
30593;SDS011;33199;47.590;8.300;2022-07-23T04:41:18;2.60;;;2.50;;
30593;SDS011;33199;47.590;8.300;2022-07-23T04:43:44;2.92;;;2.60;;
30593;SDS011;33199;47.590;8.300;2022-07-23T04:46:10;3.00;;;2.78;;
30593;SDS011;33199;47.590;8.300;2022-07-23T04:48:35;2.50;;;2.40;;
30593;SDS011;33199;47.590;8.300;2022-07-23T04:51:01;3.08;;;2.88;;
30593;SDS011;33199;47.590;8.300;2022-07-23T04:53:28;3.05;;;2.85;;
30593;SDS011;33199;47.590;8.300;2022-07-23T04:55:53;2.92;;;2.72;;
30593;SDS011;33199;47.590;8.300;2022-07-23T04:58:19;2.88;;;2.67;;
30593;SDS011;33199;47.590;8.300;2022-07-23T05:00:45;2.95;;;2.75;;
30593;SDS011;33199;47.590;8.300;2022-07-23T05:03:11;2.70;;;2.50;;
30593;SDS011;33199;47.590;8.300;2022-07-23T05:05:36;3.00;;;2.80;;
30593;SDS011;33199;47.590;8.300;2022-07-23T05:08:02;2.63;;;2.53;;
30593;SDS011;33199;47.590;8.300;2022-07-23T05:10:28;3.05;;;2.85;;
30593;SDS011;33199;47.590;8.300;2022-07-23T05:12:54;2.78;;;2.60;;
30593;SDS011;33199;47.590;8.300;2022-07-23T05:15:20;2.78;;;2.67;;
30593;SDS011;33199;47.590;8.300;2022-07-23T05:17:45;3.10;;;2.90;;
30593;SDS011;33199;47.590;8.300;2022-07-23T05:20:11;2.83;;;2.72;;
30593;SDS011;33199;47.590;8.300;2022-07-23T05:22:38;2.80;;;2.63;;
30593;SDS011;33199;47.590;8.300;2022-07-23T05:25:04;2.85;;;2.75;;
30593;SDS011;33199;47.590;8.300;2022-07-23T05:27:30;2.65;;;2.50;;
30593;SDS011;33199;47.590;8.300;2022-07-23T05:29:55;3.22;;;2.95;;
30593;SDS011;33199;47.590;8.300;2022-07-23T05:32:21;2.90;;;2.70;;
30593;SDS011;33199;47.590;8.300;2022-07-23T05:34:47;2.80;;;2.67;;
30593;SDS011;33199;47.590;8.300;2022-07-23T05:37:12;2.80;;;2.63;;
30593;SDS011;33199;47.590;8.300;2022-07-23T05:39:38;2.70;;;2.50;;
30593;SDS011;33199;47.590;8.300;2022-07-23T05:42:03;2.67;;;2.53;;
30593;SDS011;33199;47.590;8.300;2022-07-23T05:44:29;2.85;;;2.60;;
30593;SDS011;33199;47.590;8.300;2022-07-23T05:46:55;2.80;;;2.60;;
30593;SDS011;33199;47.590;8.300;2022-07-23T05:49:20;3.00;;;2.80;;
30593;SDS011;33199;47.590;8.300;2022-07-23T05:51:46;2.63;;;2.50;;
30593;SDS011;33199;47.590;8.300;2022-07-23T05:54:11;2.75;;;2.55;;
30593;SDS011;33199;47.590;8.300;2022-07-23T05:56:37;2.80;;;2.60;;
30593;SDS011;33199;47.590;8.300;2022-07-23T05:59:02;2.92;;;2.72;;
30593;SDS011;33199;47.590;8.300;2022-07-23T06:01:28;2.47;;;2.33;;
30593;SDS011;33199;47.590;8.300;2022-07-23T06:03:53;2.22;;;2.13;;
30593;SDS011;33199;47.590;8.300;2022-07-23T06:06:19;2.95;;;2.75;;
30593;SDS011;33199;47.590;8.300;2022-07-23T06:08:44;2.83;;;2.63;;
30593;SDS011;33199;47.590;8.300;2022-07-23T06:11:10;2.92;;;2.72;;
30593;SDS011;33199;47.590;8.300;2022-07-23T06:13:36;3.10;;;2.90;;
30593;SDS011;33199;47.590;8.300;2022-07-23T06:16:02;2.55;;;2.45;;
30593;SDS011;33199;47.590;8.300;2022-07-23T06:18:27;2.42;;;2.33;;
30593;SDS011;33199;47.590;8.300;2022-07-23T06:20:53;2.67;;;2.47;;
30593;SDS011;33199;47.590;8.300;2022-07-23T06:23:19;2.92;;;2.80;;
30593;SDS011;33199;47.590;8.300;2022-07-23T06:25:45;2.50;;;2.40;;
30593;SDS011;33199;47.590;8.300;2022-07-23T06:28:10;2.25;;;2.15;;
30593;SDS011;33199;47.590;8.300;2022-07-23T06:30:36;2.72;;;2.63;;
30593;SDS011;33199;47.590;8.300;2022-07-23T06:33:02;2.60;;;2.50;;
30593;SDS011;33199;47.590;8.300;2022-07-23T06:35:27;3.15;;;2.95;;
30593;SDS011;33199;47.590;8.300;2022-07-23T06:37:53;2.53;;;2.42;;
30593;SDS011;33199;47.590;8.300;2022-07-23T06:40:18;2.42;;;2.33;;
30593;SDS011;33199;47.590;8.300;2022-07-23T06:42:45;2.53;;;2.33;;
30593;SDS011;33199;47.590;8.300;2022-07-23T06:45:10;2.65;;;2.55;;
30593;SDS011;33199;47.590;8.300;2022-07-23T06:47:36;2.60;;;2.40;;
30593;SDS011;33199;47.590;8.300;2022-07-23T06:50:02;2.80;;;2.70;;
30593;SDS011;33199;47.590;8.300;2022-07-23T06:52:27;2.88;;;2.67;;
30593;SDS011;33199;47.590;8.300;2022-07-23T06:54:53;2.63;;;2.42;;
30593;SDS011;33199;47.590;8.300;2022-07-23T06:57:18;2.85;;;2.65;;
30593;SDS011;33199;47.590;8.300;2022-07-23T06:59:44;2.72;;;2.53;;
30593;SDS011;33199;47.590;8.300;2022-07-23T07:02:10;2.70;;;2.60;;
30593;SDS011;33199;47.590;8.300;2022-07-23T07:04:35;3.15;;;2.97;;
30593;SDS011;33199;47.590;8.300;2022-07-23T07:07:01;2.72;;;2.63;;
30593;SDS011;33199;47.590;8.300;2022-07-23T07:09:26;3.75;;;2.35;;
30593;SDS011;33199;47.590;8.300;2022-07-23T07:11:52;2.90;;;2.70;;
30593;SDS011;33199;47.590;8.300;2022-07-23T07:14:18;2.72;;;2.53;;
30593;SDS011;33199;47.590;8.300;2022-07-23T07:16:43;3.03;;;2.83;;
30593;SDS011;33199;47.590;8.300;2022-07-23T07:19:09;2.90;;;2.70;;
30593;SDS011;33199;47.590;8.300;2022-07-23T07:21:34;2.80;;;2.60;;
30593;SDS011;33199;47.590;8.300;2022-07-23T07:24:00;2.47;;;2.38;;
30593;SDS011;33199;47.590;8.300;2022-07-23T07:26:26;2.83;;;2.63;;
30593;SDS011;33199;47.590;8.300;2022-07-23T07:28:52;3.33;;;2.60;;
30593;SDS011;33199;47.590;8.300;2022-07-23T07:31:17;4.57;;;4.18;;
30593;SDS011;33199;47.590;8.300;2022-07-23T07:33:43;6.22;;;4.80;;
30593;SDS011;33199;47.590;8.300;2022-07-23T07:36:08;5.38;;;4.88;;
30593;SDS011;33199;47.590;8.300;2022-07-23T07:38:34;6.45;;;5.00;;
30593;SDS011;33199;47.590;8.300;2022-07-23T07:40:59;9.70;;;5.30;;
30593;SDS011;33199;47.590;8.300;2022-07-23T07:43:25;5.45;;;4.90;;
30593;SDS011;33199;47.590;8.300;2022-07-23T07:45:51;7.53;;;5.45;;
30593;SDS011;33199;47.590;8.300;2022-07-23T07:48:16;7.60;;;5.15;;
30593;SDS011;33199;47.590;8.300;2022-07-23T07:50:42;7.78;;;5.60;;
30593;SDS011;33199;47.590;8.300;2022-07-23T07:53:07;7.47;;;5.25;;
30593;SDS011;33199;47.590;8.300;2022-07-23T07:55:33;6.15;;;5.38;;
30593;SDS011;33199;47.590;8.300;2022-07-23T07:57:59;9.00;;;5.10;;
30593;SDS011;33199;47.590;8.300;2022-07-23T08:00:25;7.60;;;5.25;;
30593;SDS011;33199;47.590;8.300;2022-07-23T08:02:51;6.55;;;5.45;;
30593;SDS011;33199;47.590;8.300;2022-07-23T08:05:19;8.38;;;5.57;;
30593;SDS011;33199;47.590;8.300;2022-07-23T08:07:49;8.60;;;5.60;;
30593;SDS011;33199;47.590;8.300;2022-07-23T08:10:15;10.13;;;5.45;;
30593;SDS011;33199;47.590;8.300;2022-07-23T08:12:45;8.23;;;5.70;;
30593;SDS011;33199;47.590;8.300;2022-07-23T08:15:16;9.52;;;5.70;;
30593;SDS011;33199;47.590;8.300;2022-07-23T08:17:44;6.75;;;5.53;;
30593;SDS011;33199;47.590;8.300;2022-07-23T08:20:11;5.80;;;5.18;;
30593;SDS011;33199;47.590;8.300;2022-07-23T08:25:16;8.20;;;4.93;;
30593;SDS011;33199;47.590;8.300;2022-07-23T08:27:45;5.97;;;5.05;;
30593;SDS011;33199;47.590;8.300;2022-07-23T08:30:10;5.78;;;5.03;;
30593;SDS011;33199;47.590;8.300;2022-07-23T08:35:17;10.77;;;5.20;;
30593;SDS011;33199;47.590;8.300;2022-07-23T08:37:46;6.68;;;4.72;;
30593;SDS011;33199;47.590;8.300;2022-07-23T08:40:11;6.20;;;5.00;;
30593;SDS011;33199;47.590;8.300;2022-07-23T08:42:37;5.70;;;4.80;;
30593;SDS011;33199;47.590;8.300;2022-07-23T08:45:03;5.72;;;4.85;;
30593;SDS011;33199;47.590;8.300;2022-07-23T08:47:29;5.00;;;4.50;;
30593;SDS011;33199;47.590;8.300;2022-07-23T08:49:56;7.35;;;4.60;;
30593;SDS011;33199;47.590;8.300;2022-07-23T08:52:23;5.75;;;5.15;;
30593;SDS011;33199;47.590;8.300;2022-07-23T08:54:49;4.97;;;4.32;;
30593;SDS011;33199;47.590;8.300;2022-07-23T08:57:16;7.32;;;4.57;;
30593;SDS011;33199;47.590;8.300;2022-07-23T08:59:41;5.15;;;4.30;;
30593;SDS011;33199;47.590;8.300;2022-07-23T09:02:07;5.03;;;4.35;;
30593;SDS011;33199;47.590;8.300;2022-07-23T09:04:33;4.45;;;4.05;;
30593;SDS011;33199;47.590;8.300;2022-07-23T09:06:59;4.85;;;4.32;;
30593;SDS011;33199;47.590;8.300;2022-07-23T09:09:26;6.30;;;4.67;;
30593;SDS011;33199;47.590;8.300;2022-07-23T09:14:37;4.63;;;4.28;;
30593;SDS011;33199;47.590;8.300;2022-07-23T09:17:13;4.50;;;4.10;;
30593;SDS011;33199;47.590;8.300;2022-07-23T09:19:41;8.10;;;4.60;;
30593;SDS011;33199;47.590;8.300;2022-07-23T09:22:17;4.28;;;3.85;;
30593;SDS011;33199;47.590;8.300;2022-07-23T09:27:46;5.78;;;4.75;;
30593;SDS011;33199;47.590;8.300;2022-07-23T09:30:18;4.40;;;4.05;;
30593;SDS011;33199;47.590;8.300;2022-07-23T09:32:51;4.20;;;3.90;;
30593;SDS011;33199;47.590;8.300;2022-07-23T09:35:45;5.67;;;4.40;;
30593;SDS011;33199;47.590;8.300;2022-07-23T09:38:13;4.55;;;4.15;;
30593;SDS011;33199;47.590;8.300;2022-07-23T09:40:39;6.50;;;4.65;;
30593;SDS011;33199;47.590;8.300;2022-07-23T09:43:04;4.53;;;4.10;;
30593;SDS011;33199;47.590;8.300;2022-07-23T09:45:30;4.93;;;4.28;;
30593;SDS011;33199;47.590;8.300;2022-07-23T09:48:16;5.00;;;4.50;;
30593;SDS011;33199;47.590;8.300;2022-07-23T09:50:42;6.35;;;5.38;;
30593;SDS011;33199;47.590;8.300;2022-07-23T09:53:11;9.02;;;5.30;;
30593;SDS011;33199;47.590;8.300;2022-07-23T09:55:49;4.97;;;4.57;;
30593;SDS011;33199;47.590;8.300;2022-07-23T10:00:46;5.20;;;4.70;;
30593;SDS011;33199;47.590;8.300;2022-07-23T10:03:14;5.85;;;4.50;;
30593;SDS011;33199;47.590;8.300;2022-07-23T10:05:40;5.63;;;4.88;;
30593;SDS011;33199;47.590;8.300;2022-07-23T10:08:08;5.38;;;4.70;;
30593;SDS011;33199;47.590;8.300;2022-07-23T10:10:37;9.15;;;4.78;;
30593;SDS011;33199;47.590;8.300;2022-07-23T10:15:39;5.45;;;4.53;;
30593;SDS011;33199;47.590;8.300;2022-07-23T10:18:06;8.05;;;4.55;;
30593;SDS011;33199;47.590;8.300;2022-07-23T10:20:34;5.15;;;4.38;;
30593;SDS011;33199;47.590;8.300;2022-07-23T10:25:46;6.05;;;4.57;;
30593;SDS011;33199;47.590;8.300;2022-07-23T10:36:20;6.65;;;4.88;;
30593;SDS011;33199;47.590;8.300;2022-07-23T10:38:54;5.32;;;4.57;;
30593;SDS011;33199;47.590;8.300;2022-07-23T10:41:34;5.57;;;4.57;;
30593;SDS011;33199;47.590;8.300;2022-07-23T10:44:17;5.43;;;4.72;;
30593;SDS011;33199;47.590;8.300;2022-07-23T10:47:02;4.65;;;4.00;;
30593;SDS011;33199;47.590;8.300;2022-07-23T10:49:35;4.40;;;4.00;;
30593;SDS011;33199;47.590;8.300;2022-07-23T10:54:39;4.40;;;4.10;;
30593;SDS011;33199;47.590;8.300;2022-07-23T10:57:09;4.75;;;4.38;;
30593;SDS011;33199;47.590;8.300;2022-07-23T11:02:40;4.20;;;3.88;;
30593;SDS011;33199;47.590;8.300;2022-07-23T11:05:08;4.85;;;4.45;;
30593;SDS011;33199;47.590;8.300;2022-07-23T11:07:36;6.55;;;4.93;;
30593;SDS011;33199;47.590;8.300;2022-07-23T11:10:32;4.75;;;4.25;;
30593;SDS011;33199;47.590;8.300;2022-07-23T11:26:42;4.32;;;4.00;;
30593;SDS011;33199;47.590;8.300;2022-07-23T11:34:47;5.72;;;4.13;;
30593;SDS011;33199;47.590;8.300;2022-07-23T11:37:33;6.35;;;4.15;;
30593;SDS011;33199;47.590;8.300;2022-07-23T11:40:05;4.43;;;4.13;;
30593;SDS011;33199;47.590;8.300;2022-07-23T11:42:38;6.72;;;4.20;;
30593;SDS011;33199;47.590;8.300;2022-07-23T11:45:15;4.88;;;4.25;;
30593;SDS011;33199;47.590;8.300;2022-07-23T11:47:40;4.45;;;4.05;;
30593;SDS011;33199;47.590;8.300;2022-07-23T11:50:06;4.15;;;3.85;;
30593;SDS011;33199;47.590;8.300;2022-07-23T11:52:32;4.13;;;3.83;;
30593;SDS011;33199;47.590;8.300;2022-07-23T11:55:00;4.47;;;4.05;;
30593;SDS011;33199;47.590;8.300;2022-07-23T11:57:29;4.95;;;4.45;;
30593;SDS011;33199;47.590;8.300;2022-07-23T12:02:31;4.85;;;4.47;;
30593;SDS011;33199;47.590;8.300;2022-07-23T12:04:56;4.70;;;4.22;;
30593;SDS011;33199;47.590;8.300;2022-07-23T12:07:29;4.82;;;4.35;;
30593;SDS011;33199;47.590;8.300;2022-07-23T12:10:00;4.47;;;4.18;;
30593;SDS011;33199;47.590;8.300;2022-07-23T12:12:38;4.82;;;4.43;;
30593;SDS011;33199;47.590;8.300;2022-07-23T12:15:05;4.57;;;4.18;;
30593;SDS011;33199;47.590;8.300;2022-07-23T12:17:32;4.95;;;4.50;;
30593;SDS011;33199;47.590;8.300;2022-07-23T12:20:00;4.82;;;4.40;;
30593;SDS011;33199;47.590;8.300;2022-07-23T12:22:42;4.55;;;3.88;;
30593;SDS011;33199;47.590;8.300;2022-07-23T12:25:14;5.03;;;4.55;;
30593;SDS011;33199;47.590;8.300;2022-07-23T12:27:58;4.55;;;4.15;;
30593;SDS011;33199;47.590;8.300;2022-07-23T12:32:54;4.82;;;4.32;;
30593;SDS011;33199;47.590;8.300;2022-07-23T12:37:48;4.70;;;4.10;;
30593;SDS011;33199;47.590;8.300;2022-07-23T12:43:00;4.47;;;4.07;;
30593;SDS011;33199;47.590;8.300;2022-07-23T12:45:28;4.43;;;4.03;;
30593;SDS011;33199;47.590;8.300;2022-07-23T12:48:30;4.95;;;4.50;;
30593;SDS011;33199;47.590;8.300;2022-07-23T12:53:25;5.00;;;4.63;;
30593;SDS011;33199;47.590;8.300;2022-07-23T12:58:26;5.20;;;4.70;;
30593;SDS011;33199;47.590;8.300;2022-07-23T13:01:04;5.30;;;4.47;;
30593;SDS011;33199;47.590;8.300;2022-07-23T13:03:35;5.30;;;4.90;;
30593;SDS011;33199;47.590;8.300;2022-07-23T13:06:04;5.25;;;4.75;;
30593;SDS011;33199;47.590;8.300;2022-07-23T13:08:31;5.15;;;4.75;;
30593;SDS011;33199;47.590;8.300;2022-07-23T13:10:58;4.77;;;4.23;;
30593;SDS011;33199;47.590;8.300;2022-07-23T13:13:25;5.32;;;4.63;;
30593;SDS011;33199;47.590;8.300;2022-07-23T13:15:52;5.25;;;4.75;;
30593;SDS011;33199;47.590;8.300;2022-07-23T13:18:19;4.65;;;4.25;;
30593;SDS011;33199;47.590;8.300;2022-07-23T13:20:45;4.63;;;4.32;;
30593;SDS011;33199;47.590;8.300;2022-07-23T13:23:12;4.43;;;4.00;;
30593;SDS011;33199;47.590;8.300;2022-07-23T13:25:38;5.18;;;4.72;;
30593;SDS011;33199;47.590;8.300;2022-07-23T13:28:03;4.85;;;4.50;;
30593;SDS011;33199;47.590;8.300;2022-07-23T13:30:29;4.53;;;4.22;;
30593;SDS011;33199;47.590;8.300;2022-07-23T13:32:55;5.38;;;4.85;;
30593;SDS011;33199;47.590;8.300;2022-07-23T13:35:20;4.82;;;4.40;;
30593;SDS011;33199;47.590;8.300;2022-07-23T13:37:46;4.85;;;4.45;;
30593;SDS011;33199;47.590;8.300;2022-07-23T13:40:12;4.97;;;4.40;;
30593;SDS011;33199;47.590;8.300;2022-07-23T13:42:38;4.90;;;4.50;;
30593;SDS011;33199;47.590;8.300;2022-07-23T13:45:04;5.00;;;4.60;;
30593;SDS011;33199;47.590;8.300;2022-07-23T13:47:30;4.88;;;4.45;;
30593;SDS011;33199;47.590;8.300;2022-07-23T13:49:56;4.60;;;4.30;;
30593;SDS011;33199;47.590;8.300;2022-07-23T13:52:22;4.78;;;4.38;;
30593;SDS011;33199;47.590;8.300;2022-07-23T13:54:47;4.70;;;4.25;;
30593;SDS011;33199;47.590;8.300;2022-07-23T13:57:13;4.15;;;3.90;;
30593;SDS011;33199;47.590;8.300;2022-07-23T13:59:39;4.63;;;4.30;;
30593;SDS011;33199;47.590;8.300;2022-07-23T14:02:04;4.30;;;4.00;;
30593;SDS011;33199;47.590;8.300;2022-07-23T14:04:30;4.55;;;4.25;;
30593;SDS011;33199;47.590;8.300;2022-07-23T14:06:56;4.50;;;4.15;;
30593;SDS011;33199;47.590;8.300;2022-07-23T14:09:22;4.80;;;4.40;;
30593;SDS011;33199;47.590;8.300;2022-07-23T14:11:48;4.63;;;4.15;;
30593;SDS011;33199;47.590;8.300;2022-07-23T14:14:15;4.68;;;4.22;;
30593;SDS011;33199;47.590;8.300;2022-07-23T14:16:41;4.82;;;4.47;;
30593;SDS011;33199;47.590;8.300;2022-07-23T14:19:07;5.30;;;4.90;;
30593;SDS011;33199;47.590;8.300;2022-07-23T14:21:33;5.07;;;4.65;;
30593;SDS011;33199;47.590;8.300;2022-07-23T14:23:59;4.93;;;4.53;;
30593;SDS011;33199;47.590;8.300;2022-07-23T14:26:24;4.47;;;4.15;;
30593;SDS011;33199;47.590;8.300;2022-07-23T14:28:50;4.68;;;4.35;;
30593;SDS011;33199;47.590;8.300;2022-07-23T14:31:16;4.60;;;4.30;;
30593;SDS011;33199;47.590;8.300;2022-07-23T14:33:41;4.30;;;4.00;;
30593;SDS011;33199;47.590;8.300;2022-07-23T14:36:07;4.60;;;4.20;;
30593;SDS011;33199;47.590;8.300;2022-07-23T14:38:32;4.93;;;4.53;;
30593;SDS011;33199;47.590;8.300;2022-07-23T14:40:58;5.50;;;5.00;;
30593;SDS011;33199;47.590;8.300;2022-07-23T14:43:23;4.65;;;4.35;;
30593;SDS011;33199;47.590;8.300;2022-07-23T14:45:49;4.20;;;3.90;;
30593;SDS011;33199;47.590;8.300;2022-07-23T14:48:15;4.93;;;4.53;;
30593;SDS011;33199;47.590;8.300;2022-07-23T14:50:40;4.40;;;4.07;;
30593;SDS011;33199;47.590;8.300;2022-07-23T14:53:06;5.43;;;4.65;;
30593;SDS011;33199;47.590;8.300;2022-07-23T14:55:32;4.95;;;4.47;;
30593;SDS011;33199;47.590;8.300;2022-07-23T14:57:58;8.05;;;4.30;;
30593;SDS011;33199;47.590;8.300;2022-07-23T15:00:24;4.88;;;4.38;;
30593;SDS011;33199;47.590;8.300;2022-07-23T15:02:50;4.70;;;4.30;;
30593;SDS011;33199;47.590;8.300;2022-07-23T15:05:16;5.43;;;4.53;;
30593;SDS011;33199;47.590;8.300;2022-07-23T15:07:42;5.63;;;4.60;;
30593;SDS011;33199;47.590;8.300;2022-07-23T15:10:08;4.47;;;4.05;;
30593;SDS011;33199;47.590;8.300;2022-07-23T15:12:33;7.45;;;4.80;;
30593;SDS011;33199;47.590;8.300;2022-07-23T15:14:59;5.30;;;4.80;;
30593;SDS011;33199;47.590;8.300;2022-07-23T15:17:24;5.70;;;4.93;;
30593;SDS011;33199;47.590;8.300;2022-07-23T15:19:50;4.80;;;4.20;;
30593;SDS011;33199;47.590;8.300;2022-07-23T15:22:16;5.50;;;4.80;;
30593;SDS011;33199;47.590;8.300;2022-07-23T15:24:42;9.18;;;5.18;;
30593;SDS011;33199;47.590;8.300;2022-07-23T15:27:08;6.85;;;5.22;;
30593;SDS011;33199;47.590;8.300;2022-07-23T15:29:33;5.60;;;5.05;;
30593;SDS011;33199;47.590;8.300;2022-07-23T15:31:59;6.88;;;4.70;;
30593;SDS011;33199;47.590;8.300;2022-07-23T15:34:25;5.25;;;4.85;;
30593;SDS011;33199;47.590;8.300;2022-07-23T15:36:51;5.50;;;4.90;;
30593;SDS011;33199;47.590;8.300;2022-07-23T15:39:17;4.78;;;4.47;;
30593;SDS011;33199;47.590;8.300;2022-07-23T15:41:43;4.78;;;4.38;;
30593;SDS011;33199;47.590;8.300;2022-07-23T15:44:08;4.63;;;4.32;;
30593;SDS011;33199;47.590;8.300;2022-07-23T15:46:34;5.32;;;4.82;;
30593;SDS011;33199;47.590;8.300;2022-07-23T15:49:00;5.00;;;4.57;;
30593;SDS011;33199;47.590;8.300;2022-07-23T15:51:25;5.07;;;4.32;;
30593;SDS011;33199;47.590;8.300;2022-07-23T15:53:51;4.50;;;4.10;;
30593;SDS011;33199;47.590;8.300;2022-07-23T15:56:17;8.32;;;4.28;;